Time;durP1;ratioP1;P1;durP2;ratioP2;P2;SDS_P1;SDS_P2;PMS_P1;PMS_P2;Temp;Humidity;BMP_temperature;BMP_pressure;BME280_temperature;BME280_humidity;BME280_pressure;Samples;Min_cycle;Max_cycle;Signal;HPM_P1;HPM_P2
2023/09/07 00:00:00;;;;;;;3.90;3.47;;;16.40;1.00;;;;;;5072363;28;20180;-82
2023/09/07 00:02:26;;;;;;;4.67;3.70;;;16.40;1.00;;;;;;5074279;28;20184;-83
2023/09/07 00:04:51;;;;;;;6.93;3.30;;;16.50;1.00;;;;;;5072915;28;20279;-83
2023/09/07 00:07:17;;;;;;;4.20;3.03;;;16.30;7.60;;;;;;5072690;28;20173;-83
2023/09/07 00:09:43;;;;;;;4.23;3.47;;;16.20;1.00;;;;;;5071981;28;20204;-83
2023/09/07 00:12:08;;;;;;;4.80;3.53;;;16.20;1.00;;;;;;5073767;28;20177;-83
2023/09/07 00:14:34;;;;;;;4.87;3.40;;;16.10;1.00;;;;;;5073719;28;20580;-83
2023/09/07 00:16:59;;;;;;;4.43;3.80;;;16.10;1.00;;;;;;5073842;28;20177;-83
2023/09/07 00:19:25;;;;;;;4.10;3.53;;;16.20;1.00;;;;;;5072445;28;20211;-83
2023/09/07 00:21:51;;;;;;;4.30;3.50;;;16.20;1.00;;;;;;5073340;28;20173;-83
2023/09/07 00:24:17;;;;;;;3.53;3.23;;;16.20;1.00;;;;;;5072342;28;20196;-83
2023/09/07 00:26:43;;;;;;;4.17;3.70;;;16.30;1.00;;;;;;5072460;28;20542;-83
2023/09/07 00:29:09;;;;;;;3.90;3.50;;;16.30;1.00;;;;;;5072403;28;20208;-83
2023/09/07 00:31:34;;;;;;;3.87;3.40;;;16.20;99.90;;;;;;5072193;28;20525;-83
2023/09/07 00:34:00;;;;;;;6.07;3.80;;;16.20;1.00;;;;;;5072173;28;20201;-83
2023/09/07 00:36:26;;;;;;;5.80;3.67;;;16.20;99.90;;;;;;5072293;28;20173;-83
2023/09/07 00:38:51;;;;;;;4.37;3.33;;;16.10;1.00;;;;;;5072314;28;20173;-83
2023/09/07 00:41:17;;;;;;;3.90;3.47;;;16.00;1.00;;;;;;5071481;28;20176;-83
2023/09/07 00:43:42;;;;;;;6.47;4.20;;;16.10;1.00;;;;;;5072385;28;20203;-83
2023/09/07 00:46:08;;;;;;;5.87;3.87;;;15.90;1.00;;;;;;5073319;28;20196;-83
2023/09/07 00:48:35;;;;;;;4.97;3.70;;;15.90;1.00;;;;;;5072900;28;20200;-83
2023/09/07 00:51:00;;;;;;;4.83;3.70;;;16.00;1.00;;;;;;5072620;28;20173;-83
2023/09/07 00:53:27;;;;;;;4.90;3.77;;;16.00;1.00;;;;;;5071757;28;20717;-82
2023/09/07 00:55:55;;;;;;;4.57;3.70;;;15.90;1.00;;;;;;5072905;28;20177;-83
2023/09/07 00:58:21;;;;;;;5.57;3.97;;;15.80;1.00;;;;;;5072901;28;20161;-83
2023/09/07 01:00:47;;;;;;;4.43;3.57;;;15.70;1.00;;;;;;5072431;28;20199;-83
2023/09/07 01:03:12;;;;;;;4.63;3.80;;;15.60;1.00;;;;;;5073019;28;20691;-83
2023/09/07 01:05:52;;;;;;;4.63;3.63;;;15.50;1.00;;;;;;5071814;28;20222;-83
2023/09/07 01:08:36;;;;;;;5.33;3.80;;;15.50;1.00;;;;;;5071692;28;20172;-83
2023/09/07 01:11:12;;;;;;;4.07;3.67;;;15.60;1.00;;;;;;5072386;28;20260;-83
2023/09/07 01:13:37;;;;;;;4.93;3.60;;;15.60;1.00;;;;;;5072901;28;20204;-83
2023/09/07 01:16:03;;;;;;;4.53;3.30;;;15.60;1.00;;;;;;5071789;28;20169;-82
2023/09/07 01:18:29;;;;;;;4.53;4.00;;;15.50;1.00;;;;;;5071650;28;20234;-83
2023/09/07 01:20:55;;;;;;;4.63;3.50;;;15.60;1.00;;;;;;5070881;28;20218;-83
2023/09/07 01:23:21;;;;;;;3.60;3.30;;;15.40;1.00;;;;;;5071518;28;20283;-83
2023/09/07 01:25:48;;;;;;;4.00;3.57;;;15.50;1.00;;;;;;5072951;28;20555;-83
2023/09/07 01:28:15;;;;;;;3.67;3.30;;;15.60;1.00;;;;;;5071442;28;20251;-83
2023/09/07 01:30:41;;;;;;;3.20;2.90;;;15.60;1.00;;;;;;5070675;28;20169;-83
2023/09/07 01:33:08;;;;;;;4.70;3.97;;;15.50;1.00;;;;;;5072563;28;20193;-83
2023/09/07 01:35:35;;;;;;;4.47;3.73;;;15.30;1.00;;;;;;5071124;28;20169;-82
2023/09/07 01:38:01;;;;;;;4.90;3.80;;;15.20;1.00;;;;;;5071396;28;20175;-83
2023/09/07 01:40:27;;;;;;;4.13;3.57;;;15.30;1.00;;;;;;5072203;28;20196;-83
2023/09/07 01:42:52;;;;;;;3.53;3.23;;;15.30;1.00;;;;;;5071126;28;20224;-82
2023/09/07 01:45:18;;;;;;;4.70;3.73;;;15.40;1.00;;;;;;5071134;28;20283;-83
2023/09/07 01:47:44;;;;;;;4.67;3.50;;;15.20;1.00;;;;;;5071294;28;20184;-83
2023/09/07 01:50:09;;;;;;;5.43;3.90;;;15.10;1.00;;;;;;5070521;28;20216;-83
2023/09/07 01:52:35;;;;;;;4.23;3.67;;;15.10;1.00;;;;;;5071075;28;20212;-83
2023/09/07 01:55:00;;;;;;;4.60;3.70;;;15.10;1.00;;;;;;5072665;28;20169;-83
2023/09/07 01:57:26;;;;;;;3.67;3.33;;;15.00;1.00;;;;;;5072346;28;20636;-83
2023/09/07 01:59:52;;;;;;;4.70;3.57;;;15.00;1.00;;;;;;5071640;28;20196;-83
2023/09/07 02:02:17;;;;;;;4.20;3.50;;;14.90;1.00;;;;;;5076425;28;20177;-83
2023/09/07 02:04:45;;;;;;;4.53;3.30;;;15.10;1.00;;;;;;5076869;28;20180;-83
2023/09/07 02:07:12;;;;;;;4.93;3.70;;;15.10;1.00;;;;;;5075382;28;20172;-83
2023/09/07 02:09:37;;;;;;;3.80;3.30;;;15.10;1.00;;;;;;5076127;28;20212;-82
2023/09/07 02:12:05;;;;;;;5.77;3.77;;;15.00;1.00;;;;;;5075184;28;20165;-83
2023/09/07 02:14:31;;;;;;;4.40;3.73;;;15.20;1.00;;;;;;5076323;28;20672;-83
2023/09/07 02:16:56;;;;;;;4.63;3.97;;;15.20;1.00;;;;;;5076256;28;20175;-83
2023/09/07 02:19:23;;;;;;;4.10;3.70;;;15.20;1.00;;;;;;5075022;28;20177;-83
2023/09/07 02:21:49;;;;;;;4.47;3.53;;;15.30;1.00;;;;;;5074665;28;20267;-83
2023/09/07 02:24:15;;;;;;;5.80;3.73;;;15.30;1.00;;;;;;5075047;28;20567;-83
2023/09/07 02:26:44;;;;;;;4.33;3.50;;;15.20;1.00;;;;;;5076259;28;20640;-83
2023/09/07 02:29:13;;;;;;;4.97;3.37;;;15.20;1.00;;;;;;5074551;28;20204;-83
2023/09/07 02:31:42;;;;;;;5.97;3.33;;;15.20;1.00;;;;;;5074417;28;20230;-83
2023/09/07 02:34:08;;;;;;;5.60;3.93;;;15.00;99.90;;;;;;5074786;28;20193;-83
2023/09/07 02:36:37;;;;;;;2.93;2.60;;;14.80;1.00;;;;;;5074902;28;20184;-83
2023/09/07 02:39:03;;;;;;;3.40;3.10;;;14.70;1.00;;;;;;5074743;28;20177;-83
2023/09/07 02:41:30;;;;;;;3.73;3.40;;;14.60;1.00;;;;;;5074546;28;20173;-83
2023/09/07 02:43:56;;;;;;;3.90;3.33;;;14.50;1.00;;;;;;5076209;28;20249;-83
2023/09/07 02:46:21;;;;;;;4.10;3.70;;;14.60;1.00;;;;;;5075218;28;20165;-83
2023/09/07 02:48:47;;;;;;;3.63;3.33;;;14.60;1.00;;;;;;5075939;28;20576;-83
2023/09/07 02:51:13;;;;;;;3.87;3.50;;;14.50;1.00;;;;;;5075582;28;20184;-83
2023/09/07 02:53:39;;;;;;;4.67;3.73;;;14.50;1.00;;;;;;5076046;28;20192;-83
2023/09/07 02:56:04;;;;;;;5.37;3.90;;;14.50;1.00;;;;;;5075296;28;20172;-83
2023/09/07 02:58:31;;;;;;;4.60;3.77;;;14.50;92.60;;;;;;5075223;28;20541;-83
2023/09/07 03:00:56;;;;;;;4.10;3.70;;;14.50;13.30;;;;;;5074444;28;20559;-83
2023/09/07 03:03:22;;;;;;;3.87;3.47;;;14.60;1.00;;;;;;5074866;28;20220;-83
2023/09/07 03:05:47;;;;;;;3.77;3.47;;;14.50;1.00;;;;;;5074878;28;20165;-83
2023/09/07 03:08:13;;;;;;;4.63;3.53;;;14.50;1.00;;;;;;5074689;28;20230;-83
2023/09/07 03:10:39;;;;;;;4.30;3.90;;;14.60;1.00;;;;;;5074982;28;20173;-83
2023/09/07 03:13:06;;;;;;;3.97;3.67;;;14.60;1.00;;;;;;5075755;28;20189;-83
2023/09/07 03:15:32;;;;;;;7.27;3.80;;;14.50;1.00;;;;;;5074993;28;20180;-83
2023/09/07 03:17:57;;;;;;;4.13;3.40;;;14.50;1.00;;;;;;5075118;28;20165;-82
2023/09/07 03:20:23;;;;;;;4.23;3.37;;;14.50;1.00;;;;;;5073416;28;20268;-83
2023/09/07 03:22:48;;;;;;;4.93;3.67;;;14.30;1.00;;;;;;5073628;28;20196;-83
2023/09/07 03:25:14;;;;;;;4.23;3.83;;;14.30;39.40;;;;;;5075353;28;20218;-83
2023/09/07 03:27:40;;;;;;;4.97;3.60;;;14.40;1.00;;;;;;5073780;28;20181;-82
2023/09/07 03:30:07;;;;;;;4.07;3.63;;;14.30;1.00;;;;;;5074086;28;20679;-83
2023/09/07 03:32:33;;;;;;;4.00;3.60;;;14.30;1.00;;;;;;5074692;28;20729;-83
2023/09/07 03:35:06;;;;;;;3.97;3.50;;;14.30;1.00;;;;;;5074764;28;20181;-83
2023/09/07 03:37:32;;;;;;;4.50;3.50;;;14.20;1.00;;;;;;5072223;28;20180;-83
2023/09/07 03:39:58;;;;;;;4.17;3.37;;;14.30;1.00;;;;;;5074393;28;20181;-83
2023/09/07 03:42:23;;;;;;;3.77;3.47;;;14.20;1.00;;;;;;5073394;28;20181;-83
2023/09/07 03:44:49;;;;;;;4.43;3.90;;;14.10;1.00;;;;;;5074632;28;20188;-83
2023/09/07 03:47:18;;;;;;;5.13;3.83;;;14.10;1.00;;;;;;5073189;28;20181;-82
2023/09/07 03:49:44;;;;;;;5.00;3.90;;;14.00;2.40;;;;;;5073985;28;20211;-82
2023/09/07 03:52:10;;;;;;;4.53;3.70;;;14.10;1.00;;;;;;5074612;28;20169;-82
2023/09/07 03:54:35;;;;;;;7.03;4.23;;;14.10;1.00;;;;;;5074758;28;20541;-83
2023/09/07 03:57:01;;;;;;;4.13;3.73;;;14.10;7.50;;;;;;5073070;28;20169;-82
2023/09/07 03:59:27;;;;;;;4.27;3.60;;;14.10;1.00;;;;;;5074656;28;20263;-83
2023/09/07 04:01:54;;;;;;;3.80;3.50;;;14.00;1.00;;;;;;5072520;28;20185;-82
2023/09/07 04:04:20;;;;;;;4.30;3.50;;;13.90;30.80;;;;;;5107123;22;20229;-84
2023/09/07 04:06:47;;;;;;;5.87;3.83;;;13.90;81.50;;;;;;5035733;28;20170;-84
2023/09/07 04:09:14;;;;;;;4.10;3.70;;;13.90;85.60;;;;;;5035299;28;20317;-84
2023/09/07 04:11:40;;;;;;;4.43;3.43;;;14.00;4.60;;;;;;5036327;28;20633;-83
2023/09/07 04:14:05;;;;;;;4.27;3.10;;;14.00;8.50;;;;;;5036968;28;20197;-85
2023/09/07 04:16:31;;;;;;;4.60;3.10;;;14.00;1.00;;;;;;5035677;28;20170;-83
2023/09/07 04:18:56;;;;;;;3.80;3.40;;;13.90;1.00;;;;;;5036942;28;20171;-84
2023/09/07 04:21:22;;;;;;;4.33;3.30;;;13.90;1.00;;;;;;5036230;28;20170;-83
2023/09/07 04:23:47;;;;;;;4.23;3.80;;;13.90;1.00;;;;;;5035067;28;20202;-85
2023/09/07 04:26:13;;;;;;;3.80;3.40;;;14.00;1.00;;;;;;5035612;28;20186;-84
2023/09/07 04:28:39;;;;;;;4.93;3.90;;;13.90;27.00;;;;;;5035824;28;20209;-83
2023/09/07 04:31:06;;;;;;;4.40;3.93;;;13.80;99.90;;;;;;5036582;28;20170;-83
2023/09/07 04:33:33;;;;;;;4.10;3.53;;;13.80;99.90;;;;;;5037018;28;20692;-84
2023/09/07 04:36:12;;;;;;;4.67;3.50;;;13.80;99.90;;;;;;5035842;28;20167;-83
2023/09/07 04:38:38;;;;;;;3.97;3.60;;;13.80;62.20;;;;;;5035960;28;20181;-85
2023/09/07 04:41:07;;;;;;;6.03;4.03;;;13.70;14.20;;;;;;5038213;28;20268;-85
2023/09/07 04:43:33;;;;;;;5.10;3.87;;;13.70;99.90;;;;;;5036898;28;20194;-85
2023/09/07 04:45:59;;;;;;;5.97;3.87;;;13.70;99.90;;;;;;5037427;28;20228;-85
2023/09/07 04:48:24;;;;;;;5.27;3.40;;;13.70;99.90;;;;;;5039647;28;20232;-84
2023/09/07 04:51:01;;;;;;;4.90;3.50;;;13.70;21.70;;;;;;5039297;28;20170;-84
2023/09/07 04:53:28;;;;;;;5.07;3.77;;;13.70;50.40;;;;;;5038164;28;20225;-80
2023/09/07 04:55:54;;;;;;;4.77;3.83;;;13.70;53.40;;;;;;5038130;28;20216;-84
2023/09/07 04:58:20;;;;;;;4.60;3.87;;;13.60;55.20;;;;;;5038265;28;20178;-84
2023/09/07 05:00:45;;;;;;;4.10;3.70;;;13.60;99.90;;;;;;5035687;28;20178;-84
2023/09/07 05:03:12;;;;;;;5.43;4.30;;;13.60;99.90;;;;;;5039056;28;20202;-83
2023/09/07 05:05:38;;;;;;;5.73;4.27;;;13.60;99.90;;;;;;5037707;28;20198;-85
2023/09/07 05:08:04;;;;;;;4.13;3.73;;;13.70;99.90;;;;;;5039738;28;20552;-84
2023/09/07 05:10:32;;;;;;;5.97;4.03;;;13.80;99.90;;;;;;5038880;28;20202;-84
2023/09/07 05:12:58;;;;;;;4.10;3.70;;;13.70;99.90;;;;;;5039573;28;20190;-83
2023/09/07 05:15:24;;;;;;;4.10;3.70;;;13.80;99.90;;;;;;5041528;28;20249;-84
2023/09/07 05:17:50;;;;;;;4.67;3.80;;;13.70;99.90;;;;;;5040680;28;20174;-84
2023/09/07 05:20:15;;;;;;;4.07;3.67;;;13.70;99.90;;;;;;5040303;28;20178;-83
2023/09/07 05:22:41;;;;;;;4.20;3.80;;;13.80;99.70;;;;;;5040106;28;20177;-84
2023/09/07 05:25:08;;;;;;;4.57;4.10;;;13.70;97.20;;;;;;5036511;28;20557;-84
2023/09/07 05:27:34;;;;;;;4.57;3.93;;;13.80;99.90;;;;;;5038752;28;20193;-84
2023/09/07 05:30:00;;;;;;;4.80;4.30;;;13.70;99.90;;;;;;5033228;28;20210;-86
2023/09/07 05:32:26;;;;;;;4.90;3.80;;;13.80;99.90;;;;;;5033502;28;20201;-85
2023/09/07 05:34:51;;;;;;;4.70;4.20;;;13.80;99.90;;;;;;5034644;28;20190;-85
2023/09/07 05:37:17;;;;;;;4.83;3.70;;;13.90;99.90;;;;;;5033388;28;20170;-84
2023/09/07 05:39:42;;;;;;;3.90;3.50;;;13.90;83.00;;;;;;5035423;28;20186;-83
2023/09/07 05:42:08;;;;;;;3.93;3.53;;;13.80;99.90;;;;;;5035856;28;20442;-84
2023/09/07 05:44:33;;;;;;;4.13;3.73;;;13.80;99.90;;;;;;5033267;28;20205;-86
2023/09/07 05:46:59;;;;;;;5.00;4.10;;;13.80;99.90;;;;;;5033152;28;20518;-85
2023/09/07 05:49:24;;;;;;;5.00;3.80;;;13.80;99.90;;;;;;5033673;28;20676;-85
2023/09/07 05:51:50;;;;;;;4.50;3.70;;;13.80;99.90;;;;;;5035566;28;20178;-84
2023/09/07 05:54:16;;;;;;;4.50;4.10;;;13.90;99.90;;;;;;5035579;28;20803;-84
2023/09/07 05:56:41;;;;;;;5.50;3.87;;;14.00;99.90;;;;;;5032042;28;20170;-84
2023/09/07 05:59:07;;;;;;;5.13;3.80;;;14.00;99.90;;;;;;5032411;28;20178;-83
2023/09/07 06:01:32;;;;;;;4.33;3.93;;;14.10;99.90;;;;;;5032124;28;20178;-83
2023/09/07 06:03:59;;;;;;;6.93;3.90;;;14.30;99.90;;;;;;4996448;28;1057334;-83
2023/09/07 06:06:24;;;;;;;4.13;3.73;;;14.30;99.90;;;;;;5033358;28;20174;-83
2023/09/07 06:08:50;;;;;;;6.07;4.80;;;14.30;99.90;;;;;;5033424;28;20251;-83
2023/09/07 06:11:16;;;;;;;5.20;4.33;;;14.30;99.90;;;;;;5032524;28;20167;-83
2023/09/07 06:13:41;;;;;;;5.73;4.43;;;14.30;99.90;;;;;;5034015;28;20586;-83
2023/09/07 06:16:07;;;;;;;5.23;4.73;;;14.30;99.90;;;;;;5033923;28;20167;-83
2023/09/07 06:18:33;;;;;;;4.83;4.33;;;14.20;99.90;;;;;;5034659;28;20244;-84
2023/09/07 06:20:58;;;;;;;5.73;4.50;;;14.30;99.90;;;;;;5034537;28;20182;-86
2023/09/07 06:23:24;;;;;;;5.63;4.50;;;14.30;99.90;;;;;;5034751;28;20194;-83
2023/09/07 06:25:49;;;;;;;5.50;4.90;;;14.40;99.90;;;;;;5034712;28;20237;-82
2023/09/07 06:28:15;;;;;;;6.23;5.20;;;14.40;99.90;;;;;;5035027;28;20174;-81
2023/09/07 06:30:40;;;;;;;8.13;5.63;;;14.50;99.90;;;;;;5032938;28;20174;-83
2023/09/07 06:33:06;;;;;;;6.53;4.93;;;14.60;99.90;;;;;;5033144;28;20217;-82
2023/09/07 06:35:32;;;;;;;5.63;5.03;;;14.70;99.90;;;;;;5034842;28;20178;-84
2023/09/07 06:37:57;;;;;;;7.00;5.33;;;14.80;99.90;;;;;;5033442;28;20178;-84
2023/09/07 06:40:23;;;;;;;6.20;5.20;;;14.80;99.90;;;;;;5033502;28;20166;-83
2023/09/07 06:42:48;;;;;;;6.47;5.27;;;14.80;99.90;;;;;;5034032;28;20174;-84
2023/09/07 06:45:14;;;;;;;6.27;5.33;;;14.90;99.90;;;;;;5033064;28;20183;-84
2023/09/07 06:47:40;;;;;;;8.23;6.00;;;15.00;99.90;;;;;;5035239;28;20174;-84
2023/09/07 06:50:07;;;;;;;6.07;5.47;;;15.00;99.90;;;;;;5037278;28;20621;-86
2023/09/07 06:52:32;;;;;;;8.10;5.60;;;15.10;99.90;;;;;;5036630;28;20254;-83
2023/09/07 06:54:58;;;;;;;7.10;6.00;;;15.30;99.90;;;;;;5037958;28;20191;-83
2023/09/07 06:57:23;;;;;;;5.87;5.20;;;15.30;99.90;;;;;;5036807;28;20235;-84
2023/09/07 06:59:49;;;;;;;5.77;4.90;;;15.40;99.90;;;;;;5035933;28;20201;-84
2023/09/07 07:02:14;;;;;;;6.57;5.73;;;15.50;99.90;;;;;;5037873;28;20206;-84
2023/09/07 07:04:40;;;;;;;6.83;6.17;;;15.60;99.90;;;;;;5037241;28;20213;-84
2023/09/07 07:07:06;;;;;;;7.03;5.60;;;15.70;99.90;;;;;;5036263;28;20178;-84
2023/09/07 07:09:31;;;;;;;6.70;5.60;;;15.80;99.90;;;;;;5037326;28;20206;-83
2023/09/07 07:12:00;;;;;;;6.50;5.80;;;15.90;99.90;;;;;;5035595;28;20185;-83
2023/09/07 07:14:26;;;;;;;6.67;6.00;;;16.00;99.90;;;;;;5036203;28;20736;-85
2023/09/07 07:16:52;;;;;;;7.10;6.27;;;16.10;99.90;;;;;;5037641;28;20213;-83
2023/09/07 07:19:17;;;;;;;6.87;5.93;;;16.20;99.90;;;;;;5037941;28;20175;-83
2023/09/07 07:21:43;;;;;;;6.70;5.80;;;16.30;99.90;;;;;;5037230;28;20171;-84
2023/09/07 07:24:08;;;;;;;9.53;6.23;;;16.50;99.90;;;;;;5035573;28;20216;-84
2023/09/07 07:26:34;;;;;;;5.90;4.90;;;16.60;99.90;;;;;;5037989;28;20683;-82
2023/09/07 07:29:00;;;;;;;7.37;5.17;;;16.80;99.90;;;;;;5040656;28;20232;-82
2023/09/07 07:31:26;;;;;;;5.57;4.53;;;17.10;99.90;;;;;;5039808;28;20178;-82
2023/09/07 07:33:52;;;;;;;6.50;5.80;;;17.40;99.90;;;;;;5040657;28;20274;-82
2023/09/07 07:36:18;;;;;;;5.90;4.90;;;17.50;99.90;;;;;;5040804;28;20170;-82
2023/09/07 07:38:43;;;;;;;4.93;4.43;;;17.60;99.90;;;;;;5039214;28;20179;-82
2023/09/07 07:41:09;;;;;;;6.47;4.40;;;17.90;99.90;;;;;;5038907;28;20184;-82
2023/09/07 07:43:34;;;;;;;8.30;5.20;;;18.20;19.90;;;;;;5041509;28;20234;-82
2023/09/07 07:46:00;;;;;;;8.30;4.90;;;18.40;1.00;;;;;;5039753;28;20181;-81
2023/09/07 07:48:25;;;;;;;5.60;5.00;;;18.60;1.00;;;;;;5041017;28;20204;-85
2023/09/07 07:50:51;;;;;;;5.37;4.80;;;18.70;1.00;;;;;;5042746;28;20170;-82
2023/09/07 07:53:16;;;;;;;6.97;5.80;;;18.90;1.00;;;;;;5041512;28;20209;-82
2023/09/07 07:55:42;;;;;;;6.40;5.43;;;19.00;99.90;;;;;;5041235;28;20170;-81
2023/09/07 07:58:09;;;;;;;6.30;5.03;;;19.00;99.90;;;;;;5039922;28;20170;-83
2023/09/07 08:00:35;;;;;;;7.10;5.30;;;19.10;99.90;;;;;;5040607;28;20744;-81
2023/09/07 08:03:05;;;;;;;6.10;5.50;;;19.10;1.00;;;;;;5042824;28;20240;-81
2023/09/07 08:05:35;;;;;;;5.20;4.70;;;19.20;83.10;;;;;;5041414;28;20185;-81
2023/09/07 08:08:01;;;;;;;6.20;4.83;;;19.20;99.90;;;;;;5042170;28;20170;-81
2023/09/07 08:10:27;;;;;;;7.13;4.97;;;19.40;1.00;;;;;;5043112;28;20202;-82
2023/09/07 08:12:56;;;;;;;6.20;5.60;;;19.70;1.00;;;;;;5041699;28;20181;-83
2023/09/07 08:15:24;;;;;;;7.88;5.35;;;19.90;1.00;;;;;;5044504;28;20166;-81
2023/09/07 08:17:50;;;;;;;7.30;5.15;;;19.90;99.90;;;;;;5044092;28;20170;-81
2023/09/07 08:20:16;;;;;;;6.20;4.72;;;20.00;1.00;;;;;;5047730;28;20614;-81
2023/09/07 08:22:42;;;;;;;5.55;4.75;;;20.10;96.40;;;;;;5047980;28;20181;-81
2023/09/07 08:25:15;;;;;;;5.90;4.82;;;20.20;1.00;;;;;;5049715;28;20175;-82
2023/09/07 08:27:45;;;;;;;4.60;4.20;;;20.50;99.90;;;;;;5048174;28;20171;-81
2023/09/07 08:30:17;;;;;;;6.38;5.30;;;20.70;1.00;;;;;;5042170;28;20190;-83
2023/09/07 08:32:44;;;;;;;7.03;4.88;;;20.90;1.00;;;;;;5041262;28;20166;-81
2023/09/07 08:35:13;;;;;;;4.95;4.45;;;21.10;1.00;;;;;;5044187;28;20178;-81
2023/09/07 08:37:39;;;;;;;5.68;4.70;;;21.20;1.00;;;;;;5043003;28;20175;-81
2023/09/07 08:40:07;;;;;;;5.80;4.97;;;21.30;99.90;;;;;;5043170;28;20205;-81
2023/09/07 08:42:36;;;;;;;5.35;4.90;;;21.40;77.50;;;;;;5040928;28;20174;-81
2023/09/07 08:45:06;;;;;;;7.80;4.50;;;21.50;99.90;;;;;;5041662;28;20178;-81
2023/09/07 08:47:33;;;;;;;5.18;4.68;;;21.60;19.20;;;;;;5043492;28;20174;-81
2023/09/07 08:49:59;;;;;;;5.70;4.32;;;21.60;99.90;;;;;;5042508;28;20202;-81
2023/09/07 08:52:25;;;;;;;5.57;4.70;;;21.80;99.90;;;;;;5042686;28;20201;-83
2023/09/07 08:54:52;;;;;;;5.10;4.60;;;22.00;99.90;;;;;;5043236;28;20186;-81
2023/09/07 08:57:21;;;;;;;6.18;4.55;;;22.10;99.90;;;;;;5041245;28;20529;-81
2023/09/07 08:59:46;;;;;;;5.60;4.57;;;22.40;90.00;;;;;;5042330;28;20166;-81
2023/09/07 09:02:12;;;;;;;5.85;4.65;;;22.50;99.90;;;;;;5043572;28;20185;-81
2023/09/07 09:04:39;;;;;;;4.55;4.10;;;22.70;1.00;;;;;;5043073;28;20206;-81
2023/09/07 09:07:04;;;;;;;6.68;4.10;;;22.90;1.00;;;;;;5040533;28;20850;-81
2023/09/07 09:09:30;;;;;;;5.05;4.35;;;23.00;1.00;;;;;;5043137;28;20198;-80
2023/09/07 09:12:10;;;;;;;4.55;4.15;;;23.20;99.90;;;;;;5040611;28;20182;-81
2023/09/07 09:14:36;;;;;;;4.47;4.07;;;23.40;99.90;;;;;;5044513;28;20550;-81
2023/09/07 09:17:02;;;;;;;5.43;4.63;;;23.50;99.90;;;;;;5041411;28;20179;-81
2023/09/07 09:19:34;;;;;;;4.90;4.05;;;23.70;53.50;;;;;;5043197;28;20178;-81
2023/09/07 09:22:00;;;;;;;4.88;4.10;;;23.80;1.20;;;;;;5041277;28;20255;-82
2023/09/07 09:24:26;;;;;;;6.38;4.25;;;24.00;1.00;;;;;;5041595;28;20194;-81
2023/09/07 09:26:52;;;;;;;4.50;3.60;;;24.20;1.00;;;;;;5041299;28;20170;-81
2023/09/07 09:29:23;;;;;;;4.10;3.70;;;24.30;99.90;;;;;;5042252;28;20750;-82
2023/09/07 09:31:48;;;;;;;4.80;3.72;;;24.50;99.90;;;;;;5042444;28;20181;-83
2023/09/07 09:34:15;;;;;;;3.72;3.42;;;24.60;1.00;;;;;;5040115;28;20190;-83
2023/09/07 09:36:42;;;;;;;4.85;3.22;;;24.70;99.90;;;;;;5041383;28;20167;-83
2023/09/07 09:39:09;;;;;;;5.38;3.67;;;24.80;1.00;;;;;;5039630;28;20182;-83
2023/09/07 09:41:36;;;;;;;5.15;3.53;;;25.00;99.90;;;;;;5042152;28;20249;-83
2023/09/07 09:44:03;;;;;;;3.80;3.40;;;25.10;1.00;;;;;;5042033;28;20205;-82
2023/09/07 09:46:31;;;;;;;5.13;3.28;;;25.30;1.00;;;;;;5039814;28;20170;-82
2023/09/07 09:48:57;;;;;;;3.72;3.22;;;25.50;99.90;;;;;;5042167;28;20199;-83
2023/09/07 09:51:24;;;;;;;4.32;2.95;;;25.60;36.30;;;;;;5039181;28;20182;-82
2023/09/07 09:53:50;;;;;;;3.53;3.10;;;25.80;99.90;;;;;;5039810;28;20218;-82
2023/09/07 09:56:17;;;;;;;3.40;3.10;;;25.90;1.00;;;;;;5039022;28;20174;-81
2023/09/07 09:58:43;;;;;;;3.20;2.90;;;26.10;1.00;;;;;;5041805;28;20178;-81
2023/09/07 10:01:10;;;;;;;3.45;3.15;;;26.30;1.00;;;;;;5038123;28;20547;-84
2023/09/07 10:03:46;;;;;;;3.20;2.90;;;26.50;1.00;;;;;;5065741;22;20308;-85
2023/09/07 10:06:18;;;;;;;5.68;3.40;;;26.50;1.00;;;;;;5072681;28;20183;-81
2023/09/07 10:09:03;;;;;;;6.88;3.35;;;26.50;1.00;;;;;;5072478;28;20675;-82
2023/09/07 10:11:34;;;;;;;3.78;3.33;;;26.60;1.00;;;;;;5070962;28;20222;-83
2023/09/07 10:14:05;;;;;;;3.30;3.00;;;26.80;1.00;;;;;;5071358;28;20188;-81
2023/09/07 10:16:49;;;;;;;3.50;3.20;;;27.00;1.00;;;;;;5073110;28;20176;-79
2023/09/07 10:19:26;;;;;;;3.47;3.17;;;27.10;1.00;;;;;;5071999;28;20193;-83
2023/09/07 10:21:54;;;;;;;3.45;3.15;;;27.30;1.00;;;;;;5072755;28;20183;-81
2023/09/07 10:24:26;;;;;;;4.07;2.92;;;27.20;1.00;;;;;;5076846;28;20287;-81
2023/09/07 10:27:08;;;;;;;3.60;3.15;;;27.50;1.00;;;;;;5077025;28;20218;-82
2023/09/07 10:29:42;;;;;;;3.53;3.22;;;27.50;99.90;;;;;;5076663;28;20716;-81
2023/09/07 10:32:12;;;;;;;3.78;3.08;;;27.50;99.90;;;;;;5076634;28;20188;-83
2023/09/07 10:34:42;;;;;;;3.42;3.13;;;27.40;99.90;;;;;;5076603;28;20204;-81
2023/09/07 10:37:11;;;;;;;3.55;2.92;;;27.50;99.90;;;;;;5076052;28;20184;-82
2023/09/07 10:39:38;;;;;;;3.72;3.03;;;27.70;99.90;;;;;;5075885;28;20165;-81
2023/09/07 10:42:04;;;;;;;4.82;3.30;;;27.80;99.90;;;;;;5075448;28;20229;-81
2023/09/07 10:44:30;;;;;;;3.88;2.80;;;28.00;99.90;;;;;;5075555;28;20668;-81
2023/09/07 10:46:57;;;;;;;3.20;2.97;;;28.10;99.90;;;;;;5075587;28;20180;-81
2023/09/07 10:49:24;;;;;;;3.60;2.90;;;28.40;99.90;;;;;;5075209;28;20236;-82
2023/09/07 10:51:50;;;;;;;3.47;3.17;;;28.60;99.90;;;;;;5074858;28;20173;-83
2023/09/07 10:54:22;;;;;;;3.78;2.92;;;28.80;99.90;;;;;;5076593;28;20185;-82
2023/09/07 10:56:49;;;;;;;3.35;3.05;;;28.80;99.90;;;;;;5075617;28;20165;-82
2023/09/07 10:59:15;;;;;;;3.22;2.90;;;28.70;99.90;;;;;;5075159;28;20173;-83
2023/09/07 11:01:43;;;;;;;3.40;2.60;;;28.70;99.90;;;;;;5075919;28;20199;-84
2023/09/07 11:04:11;;;;;;;3.20;2.90;;;28.70;99.90;;;;;;5075245;28;20209;-83
2023/09/07 11:06:38;;;;;;;3.15;2.80;;;28.70;99.90;;;;;;5076219;28;20258;-82
2023/09/07 11:09:04;;;;;;;3.65;2.60;;;28.80;99.90;;;;;;5073954;28;20193;-83
2023/09/07 11:11:33;;;;;;;3.83;3.00;;;28.80;99.90;;;;;;5073856;28;20176;-83
2023/09/07 11:13:59;;;;;;;3.72;2.75;;;28.90;99.90;;;;;;5075154;28;20671;-83
2023/09/07 11:16:26;;;;;;;2.53;2.33;;;29.20;99.90;;;;;;5075112;28;20184;-83
2023/09/07 11:18:54;;;;;;;2.78;2.30;;;29.30;99.90;;;;;;5073962;28;20226;-83
2023/09/07 11:21:20;;;;;;;2.83;2.50;;;29.60;99.90;;;;;;5073518;28;20177;-82
2023/09/07 11:23:46;;;;;;;3.95;2.63;;;29.70;99.90;;;;;;5075313;28;20204;-83
2023/09/07 11:26:11;;;;;;;2.75;2.53;;;29.70;99.90;;;;;;5074030;28;20169;-83
2023/09/07 11:28:38;;;;;;;4.22;2.70;;;29.70;99.90;;;;;;5073758;28;20184;-83
2023/09/07 11:31:03;;;;;;;3.25;2.45;;;30.00;99.90;;;;;;5073312;28;20173;-83
2023/09/07 11:33:32;;;;;;;3.05;2.63;;;30.20;99.90;;;;;;5073401;28;20208;-83
2023/09/07 11:35:58;;;;;;;3.53;2.60;;;30.20;99.90;;;;;;5073954;28;20169;-82
2023/09/07 11:38:29;;;;;;;3.42;2.50;;;30.20;99.90;;;;;;5074118;28;20173;-83
2023/09/07 11:40:55;;;;;;;3.13;2.53;;;30.40;99.90;;;;;;5077336;28;20172;-83
2023/09/07 11:43:22;;;;;;;3.30;2.58;;;30.20;99.90;;;;;;5079256;28;20215;-82
2023/09/07 11:45:48;;;;;;;2.70;2.50;;;30.40;99.90;;;;;;5077328;28;20173;-83
2023/09/07 11:48:13;;;;;;;3.03;2.72;;;30.40;99.90;;;;;;5074964;28;20179;-83
2023/09/07 11:50:40;;;;;;;5.53;2.80;;;30.60;99.90;;;;;;5072909;28;20265;-83
2023/09/07 11:53:06;;;;;;;2.80;2.60;;;30.70;99.90;;;;;;5073802;28;20173;-83
2023/09/07 11:55:33;;;;;;;2.80;2.58;;;30.90;99.90;;;;;;5073370;28;20771;-82
2023/09/07 11:57:58;;;;;;;3.08;2.78;;;31.00;95.10;;;;;;5075225;28;20230;-82
2023/09/07 12:00:24;;;;;;;4.35;2.38;;;30.90;71.70;;;;;;5072837;28;20211;-83
2023/09/07 12:02:50;;;;;;;2.80;2.60;;;30.90;76.80;;;;;;5074786;28;20173;-83
2023/09/07 12:05:15;;;;;;;3.33;2.75;;;30.80;58.70;;;;;;5072965;28;20297;-83
2023/09/07 12:07:45;;;;;;;2.85;2.40;;;30.70;58.70;;;;;;5073122;28;20719;-83
2023/09/07 12:10:13;;;;;;;2.97;2.72;;;30.70;44.10;;;;;;5073606;28;20197;-83
2023/09/07 12:12:39;;;;;;;3.78;2.55;;;30.90;50.50;;;;;;5072970;28;20176;-83
2023/09/07 12:15:06;;;;;;;3.05;2.75;;;31.10;71.70;;;;;;5072925;28;20219;-83
2023/09/07 12:17:32;;;;;;;4.07;2.42;;;31.20;53.20;;;;;;5074362;28;20161;-83
2023/09/07 12:19:58;;;;;;;3.22;2.90;;;31.50;62.30;;;;;;5072245;28;20556;-83
2023/09/07 12:22:24;;;;;;;3.38;2.45;;;31.50;54.90;;;;;;5074212;28;20173;-83
2023/09/07 12:24:49;;;;;;;2.78;2.58;;;31.60;56.40;;;;;;5073995;28;20185;-83
2023/09/07 12:27:15;;;;;;;2.53;2.33;;;31.70;55.30;;;;;;5073792;28;20176;-83
2023/09/07 12:29:40;;;;;;;3.33;2.65;;;31.50;58.60;;;;;;5073521;28;20204;-83
2023/09/07 12:32:06;;;;;;;3.53;2.83;;;31.50;51.10;;;;;;5073613;28;20177;-83
2023/09/07 12:34:31;;;;;;;2.90;2.60;;;31.70;55.50;;;;;;5072604;28;20199;-83
2023/09/07 12:36:57;;;;;;;2.70;2.50;;;31.80;43.20;;;;;;5072508;28;20175;-83
2023/09/07 12:39:22;;;;;;;3.13;2.80;;;31.60;35.10;;;;;;5072794;28;20173;-83
2023/09/07 12:41:48;;;;;;;2.70;2.50;;;31.90;42.30;;;;;;5071750;28;20174;-83
2023/09/07 12:44:14;;;;;;;4.03;2.90;;;32.10;43.00;;;;;;5073148;28;20207;-83
2023/09/07 12:46:39;;;;;;;2.60;2.40;;;32.10;26.70;;;;;;5072302;28;20195;-83